Aviation Digital Data Service (ADDS)

Output produced by METARs form (1436 UTC 10 December 2016)
found at http://aviationweather.gov/adds/metars/
 
KECG 101120Z 1012/1112 30007KT P6SM SKC 
     FM102300 VRB02KT P6SM SKC